createdAt,value
2019-05-07T00:00:18.985Z,6.20
2019-05-07T00:01:18.889Z,6.35
2019-05-07T00:02:18.961Z,6.37
2019-05-07T00:03:18.949Z,6.33
2019-05-07T00:04:18.889Z,6.44
2019-05-07T00:05:18.978Z,6.41
2019-05-07T00:06:18.968Z,6.52
2019-05-07T00:07:18.918Z,6.51
2019-05-07T00:08:18.950Z,6.47
2019-05-07T00:09:18.948Z,6.50
2019-05-07T00:10:18.895Z,6.46
2019-05-07T00:11:18.983Z,6.62
2019-05-07T00:12:18.960Z,6.72
2019-05-07T00:13:18.901Z,6.66
2019-05-07T00:14:18.962Z,6.61
2019-05-07T00:15:18.949Z,6.64
2019-05-07T00:16:18.942Z,6.68
2019-05-07T00:17:18.979Z,6.67
2019-05-07T00:18:18.974Z,6.64
2019-05-07T00:19:18.905Z,6.68
2019-05-07T00:20:18.964Z,6.68
2019-05-07T00:21:18.964Z,6.71
2019-05-07T00:22:18.913Z,6.78
2019-05-07T00:23:18.972Z,6.81
2019-05-07T00:24:18.977Z,6.86
2019-05-07T00:25:18.922Z,6.86
2019-05-07T00:26:18.971Z,6.85
2019-05-07T00:27:18.960Z,6.85
2019-05-07T00:28:18.911Z,6.83
2019-05-07T00:29:18.989Z,6.81
2019-05-07T00:30:18.981Z,6.81
2019-05-07T00:31:18.906Z,6.80
2019-05-07T00:32:18.973Z,6.82
2019-05-07T00:33:18.892Z,6.84
2019-05-07T00:34:18.927Z,6.83
2019-05-07T00:35:18.987Z,6.72
2019-05-07T00:36:18.972Z,6.67
2019-05-07T00:37:18.933Z,6.68
2019-05-07T00:38:18.968Z,6.67
2019-05-07T00:39:18.972Z,6.63
2019-05-07T00:40:18.938Z,6.58
2019-05-07T00:41:18.999Z,6.58
2019-05-07T00:42:18.982Z,6.53
2019-05-07T00:43:18.925Z,6.41
2019-05-07T00:44:18.980Z,6.38
2019-05-07T00:45:21.639Z,6.37
2019-05-07T00:46:18.934Z,6.33
2019-05-07T00:47:18.979Z,6.32
2019-05-07T00:48:18.978Z,6.23
2019-05-07T00:49:18.951Z,6.03
2019-05-07T00:50:18.984Z,6.02
2019-05-07T00:51:18.944Z,6.07
2019-05-07T00:52:18.949Z,6.12
2019-05-07T00:53:18.937Z,6.22
2019-05-07T00:54:18.990Z,6.07
2019-05-07T00:55:18.933Z,6.05
2019-05-07T00:56:18.991Z,6.09
2019-05-07T00:57:18.995Z,5.98
2019-05-07T00:58:18.934Z,6.06
2019-05-07T00:59:18.937Z,6.12
2019-05-07T01:00:18.976Z,6.24
2019-05-07T01:01:18.950Z,6.25
2019-05-07T01:02:18.997Z,6.29
2019-05-07T01:03:19.004Z,6.22
2019-05-07T01:04:18.943Z,6.17
2019-05-07T01:05:18.987Z,6.12
2019-05-07T01:06:18.925Z,6.04
2019-05-07T01:07:18.938Z,6.02
2019-05-07T01:08:18.948Z,5.87
2019-05-07T01:09:19.004Z,5.71
2019-05-07T01:10:18.934Z,5.75
2019-05-07T01:11:18.936Z,5.81
2019-05-07T01:12:18.994Z,5.78
2019-05-07T01:13:18.957Z,5.85
2019-05-07T01:14:19.016Z,5.90
2019-05-07T01:15:28.822Z,6.06
2019-05-07T01:16:18.944Z,6.15
2019-05-07T01:17:19.002Z,6.09
2019-05-07T01:18:18.986Z,5.89
2019-05-07T01:19:18.959Z,5.98
2019-05-07T01:20:19.014Z,6.03
2019-05-07T01:21:19.005Z,6.01
2019-05-07T01:22:18.940Z,6.03
2019-05-07T01:23:19.003Z,6.13
2019-05-07T01:24:19.009Z,6.15
2019-05-07T01:25:18.975Z,6.18
2019-05-07T01:26:18.945Z,6.26
2019-05-07T01:27:19.009Z,6.26
2019-05-07T01:28:18.954Z,6.18
2019-05-07T01:29:19.012Z,6.15
2019-05-07T01:30:19.021Z,6.15
2019-05-07T01:31:18.993Z,6.12
2019-05-07T01:32:19.013Z,6.11
2019-05-07T01:33:19.018Z,6.16
2019-05-07T01:34:18.963Z,6.18
2019-05-07T01:35:19.042Z,6.18
2019-05-07T01:36:19.031Z,6.15
2019-05-07T01:37:18.974Z,6.14
2019-05-07T01:38:19.023Z,6.11
2019-05-07T01:39:18.960Z,6.07
2019-05-07T01:40:18.977Z,6.08
2019-05-07T01:41:19.015Z,6.05
2019-05-07T01:42:18.991Z,5.97
2019-05-07T01:43:19.002Z,5.95
2019-05-07T01:44:19.045Z,5.96
2019-05-07T01:45:19.023Z,5.88
2019-05-07T01:46:18.978Z,5.89
2019-05-07T01:47:19.025Z,5.87
2019-05-07T01:48:19.036Z,5.85
2019-05-07T01:49:19.075Z,5.99
2019-05-07T01:50:18.964Z,5.98
2019-05-07T01:51:19.014Z,5.95
2019-05-07T01:52:18.982Z,5.83
2019-05-07T01:53:18.961Z,5.70
2019-05-07T01:54:19.039Z,5.66
2019-05-07T01:55:19.013Z,5.69
2019-05-07T01:56:19.031Z,5.63
2019-05-07T01:57:18.962Z,5.60
2019-05-07T01:58:18.974Z,5.66
2019-05-07T01:59:19.028Z,5.57
2019-05-07T02:00:19.041Z,5.57
2019-05-07T02:01:18.992Z,5.45
2019-05-07T02:02:19.032Z,5.36
2019-05-07T02:03:19.031Z,5.27
2019-05-07T02:04:18.972Z,5.18
2019-05-07T02:05:18.988Z,5.48
2019-05-07T02:06:19.042Z,5.37
2019-05-07T02:07:18.998Z,5.26
2019-05-07T02:08:19.035Z,5.09
2019-05-07T02:09:19.030Z,4.97
2019-05-07T02:10:18.983Z,4.86
2019-05-07T02:11:19.055Z,4.74
2019-05-07T02:12:18.997Z,4.64
2019-05-07T02:13:18.995Z,4.50
2019-05-07T02:14:19.030Z,4.42
2019-05-07T02:15:19.045Z,4.30
2019-05-07T02:16:19.014Z,4.18
2019-05-07T02:17:19.002Z,3.96
2019-05-07T02:18:19.003Z,3.94
2019-05-07T02:19:19.013Z,3.96
2019-05-07T02:20:18.990Z,3.90
2019-05-07T02:21:18.984Z,4.16
2019-05-07T02:22:19.004Z,4.10
2019-05-07T02:23:19.062Z,3.97
2019-05-07T02:24:19.020Z,3.87
2019-05-07T02:25:19.012Z,3.76
2019-05-07T02:26:19.060Z,3.77
2019-05-07T02:27:19.035Z,3.80
2019-05-07T02:28:19.003Z,3.76
2019-05-07T02:29:19.018Z,3.69
2019-05-07T02:30:19.055Z,3.61
2019-05-07T02:31:19.015Z,3.48
2019-05-07T02:32:19.055Z,3.34
2019-05-07T02:33:19.007Z,3.24
2019-05-07T02:34:19.002Z,3.23
2019-05-07T02:35:19.054Z,3.18
2019-05-07T02:36:19.072Z,3.18
2019-05-07T02:37:19.023Z,3.14
2019-05-07T02:38:19.018Z,3.10
2019-05-07T02:39:19.054Z,3.12
2019-05-07T02:40:19.042Z,3.23
2019-05-07T02:41:19.053Z,3.17
2019-05-07T02:42:19.080Z,3.07
2019-05-07T02:43:19.020Z,3.06
2019-05-07T02:44:19.018Z,3.01
2019-05-07T02:45:19.015Z,2.93
2019-05-07T02:46:29.344Z,2.88
2019-05-07T02:47:19.019Z,2.88
2019-05-07T02:48:19.041Z,2.98
2019-05-07T02:49:19.029Z,2.87
2019-05-07T02:50:19.023Z,2.83
2019-05-07T02:51:19.028Z,2.78
2019-05-07T02:52:19.023Z,2.84
2019-05-07T02:53:19.048Z,2.87
2019-05-07T02:54:19.051Z,2.77
2019-05-07T02:55:19.043Z,2.71
2019-05-07T02:56:19.035Z,2.57
2019-05-07T02:57:19.042Z,2.48
2019-05-07T02:58:19.045Z,2.38
2019-05-07T02:59:19.001Z,2.31
2019-05-07T03:00:19.569Z,2.26
2019-05-07T03:01:19.083Z,2.20
2019-05-07T03:02:19.030Z,2.10
2019-05-07T03:03:19.002Z,2.02
2019-05-07T03:04:19.021Z,1.94
2019-05-07T03:05:19.057Z,1.90
2019-05-07T03:06:19.053Z,1.86
2019-05-07T03:07:19.048Z,1.80
2019-05-07T03:08:23.400Z,1.76
2019-05-07T03:09:19.037Z,1.74
2019-05-07T03:10:19.033Z,1.74
2019-05-07T03:11:19.077Z,1.77
2019-05-07T03:12:19.052Z,1.77
2019-05-07T03:13:19.045Z,1.77
2019-05-07T03:14:19.040Z,1.77
2019-05-07T03:15:19.040Z,1.84
2019-05-07T03:16:37.550Z,1.85
2019-05-07T03:17:19.028Z,1.85
2019-05-07T03:18:19.283Z,1.84
2019-05-07T03:19:19.045Z,1.80
2019-05-07T03:20:19.093Z,1.73
2019-05-07T03:21:19.045Z,1.67
2019-05-07T03:22:19.040Z,1.60
2019-05-07T03:23:19.053Z,1.65
2019-05-07T03:24:19.070Z,1.63
2019-05-07T15:00:23.297Z,15.07
2019-05-07T15:01:23.286Z,15.08
2019-05-07T15:02:23.741Z,14.82
2019-05-07T15:03:23.285Z,14.41
2019-05-07T15:04:23.282Z,14.39
2019-05-07T15:05:23.331Z,14.56
2019-05-07T15:06:23.306Z,14.54
2019-05-07T15:07:23.312Z,14.47
2019-05-07T15:08:23.316Z,14.62
2019-05-07T15:09:23.355Z,14.36
2019-05-07T15:10:23.312Z,14.46
2019-05-07T15:11:23.328Z,14.31
2019-05-07T15:12:23.652Z,14.03
2019-05-07T15:13:23.305Z,13.74
2019-05-07T15:14:23.316Z,13.75
2019-05-07T15:15:23.373Z,13.82
2019-05-07T15:16:23.348Z,13.72
2019-05-07T15:17:23.396Z,13.84
2019-05-07T15:18:23.814Z,13.74
2019-05-07T15:19:23.331Z,13.84
2019-05-07T15:20:23.328Z,13.31
2019-05-07T15:21:23.402Z,13.07
2019-05-07T15:22:23.361Z,13.17
2019-05-07T15:23:23.346Z,13.68
2019-05-07T15:24:23.383Z,13.83
2019-05-07T15:25:23.351Z,14.22
2019-05-07T15:26:23.369Z,14.36
2019-05-07T15:27:23.414Z,14.07
2019-05-07T15:28:23.729Z,14.13
2019-05-07T15:29:23.339Z,14.39
2019-05-07T15:30:23.457Z,13.94
2019-05-07T15:31:23.342Z,13.81
2019-05-07T15:32:23.369Z,13.98
2019-05-07T15:33:23.825Z,14.08
2019-05-07T15:34:23.429Z,14.18
2019-05-07T15:43:45.879Z,13.68
2019-05-07T15:44:43.179Z,13.42
2019-05-07T15:45:42.761Z,13.63
2019-05-07T15:46:42.866Z,14.07
2019-05-07T15:47:42.730Z,13.59
2019-05-07T15:48:42.737Z,13.48
2019-05-07T15:49:42.781Z,13.78
2019-05-07T15:50:42.988Z,13.53
2019-05-07T15:51:42.754Z,13.86
2019-05-07T15:52:42.836Z,14.26
2019-05-07T15:54:35.285Z,14.76
2019-05-07T15:55:34.292Z,15.20
2019-05-07T15:56:34.307Z,15.11
2019-05-07T15:57:34.316Z,14.65
2019-05-07T15:58:34.303Z,15.03
2019-05-07T15:59:34.354Z,15.63
2019-05-07T16:00:34.371Z,15.68
2019-05-07T16:01:34.303Z,15.71
2019-05-07T16:02:34.307Z,15.95
2019-05-07T16:03:34.336Z,16.11
2019-05-07T16:04:34.304Z,16.21
2019-05-07T16:05:34.335Z,16.46
2019-05-07T16:06:34.353Z,15.10
2019-05-07T16:07:34.323Z,14.97
2019-05-07T16:08:34.311Z,14.72
2019-05-07T16:09:34.344Z,15.22
2019-05-07T16:10:34.328Z,15.55
2019-05-07T16:11:34.365Z,15.78
2019-05-07T16:12:34.358Z,15.78
2019-05-07T16:13:34.322Z,15.91
2019-05-07T16:14:34.316Z,15.57
2019-05-07T16:15:34.375Z,14.82
2019-05-07T16:16:34.324Z,15.05
2019-05-07T16:17:34.383Z,14.92
2019-05-07T16:43:30.238Z,12.85
2019-05-07T16:44:30.157Z,12.79
2019-05-07T16:45:30.274Z,13.18
2019-05-07T16:46:30.272Z,13.68
2019-05-07T16:47:30.237Z,13.98
2019-05-07T16:48:32.530Z,14.18
2019-05-07T16:49:31.828Z,14.07
2019-05-07T16:50:32.048Z,13.38
2019-05-07T16:51:32.857Z,13.56
2019-05-07T16:52:34.722Z,13.11
2019-05-07T16:53:32.640Z,13.29
2019-05-07T16:54:30.268Z,13.67
2019-05-07T16:55:30.267Z,13.88
2019-05-07T16:56:30.227Z,13.35
2019-05-07T16:57:31.824Z,13.60
2019-05-07T16:58:32.055Z,12.79
2019-05-07T16:59:32.426Z,12.84
2019-05-07T17:00:31.870Z,12.99
2019-05-07T17:01:32.356Z,12.94
2019-05-07T17:02:33.648Z,12.83
2019-05-07T17:03:31.865Z,12.97
2019-05-07T17:04:31.927Z,13.11
2019-05-07T17:05:32.116Z,12.81
2019-05-07T17:06:32.099Z,12.94
2019-05-07T17:07:32.165Z,12.98
2019-05-07T17:08:31.920Z,12.68
2019-05-07T17:09:32.231Z,12.29
2019-05-07T17:10:31.789Z,12.75
2019-05-07T17:11:32.053Z,12.60
2019-05-07T17:12:32.253Z,12.43
2019-05-07T17:13:31.959Z,12.42
2019-05-07T17:14:30.302Z,12.21
2019-05-07T17:15:30.346Z,11.96
2019-05-07T17:16:31.769Z,12.33
2019-05-07T17:17:32.023Z,12.59
2019-05-07T17:18:32.410Z,12.55
2019-05-07T17:19:31.962Z,12.62
2019-05-07T17:20:32.493Z,12.14
2019-05-07T17:21:32.259Z,12.30
2019-05-07T17:22:32.209Z,12.20
2019-05-07T17:23:41.354Z,12.24
2019-05-07T17:24:30.311Z,12.20
2019-05-07T17:25:30.312Z,12.12
2019-05-07T17:26:30.285Z,12.14
2019-05-07T17:27:32.123Z,12.17
2019-05-07T17:28:31.986Z,12.05
2019-05-07T17:29:32.072Z,11.90
2019-05-07T17:30:31.997Z,11.95
2019-05-07T17:31:31.859Z,11.84
2019-05-07T17:32:32.138Z,11.72
2019-05-07T17:33:31.979Z,11.74
2019-05-07T17:34:30.284Z,11.81
2019-05-07T17:35:30.291Z,11.45
2019-05-07T17:36:30.309Z,11.54
2019-05-07T17:37:30.323Z,11.41
2019-05-07T17:38:32.031Z,11.46
2019-05-07T17:39:32.122Z,11.55
2019-05-07T17:40:32.087Z,11.40
2019-05-07T17:41:32.319Z,11.44
2019-05-07T17:42:32.729Z,11.45
2019-05-07T17:43:32.343Z,11.36
2019-05-07T17:44:32.317Z,11.29
2019-05-07T17:45:32.232Z,11.29
2019-05-07T17:46:32.410Z,11.26
2019-05-07T17:47:32.170Z,11.27
2019-05-07T17:48:32.618Z,11.26
2019-05-07T17:49:32.169Z,11.27
2019-05-07T17:50:32.200Z,11.27
2019-05-07T17:51:32.261Z,11.29
2019-05-07T17:52:32.217Z,11.22
2019-05-07T17:53:32.004Z,10.96
2019-05-07T17:54:31.842Z,10.81
2019-05-07T17:55:30.335Z,10.75
2019-05-07T17:56:32.019Z,10.73
2019-05-07T17:57:30.380Z,10.74
2019-05-07T17:58:32.389Z,10.75
2019-05-07T17:59:32.091Z,10.69
2019-05-07T18:00:32.698Z,10.68
2019-05-07T18:01:32.182Z,10.56
2019-05-07T18:02:30.315Z,10.53
2019-05-07T18:03:32.229Z,10.49
2019-05-07T18:04:32.447Z,10.50
2019-05-07T18:05:31.755Z,10.44
2019-05-07T18:06:32.106Z,10.40
2019-05-07T18:07:30.352Z,10.31
2019-05-07T18:08:32.230Z,10.25
2019-05-07T18:09:31.893Z,10.23
2019-05-07T18:10:31.984Z,10.21
2019-05-07T18:11:32.293Z,10.22
2019-05-07T18:12:32.028Z,10.17
2019-05-07T18:13:32.404Z,10.09
2019-05-07T18:14:32.182Z,10.07
2019-05-07T18:15:32.180Z,9.96
2019-05-07T18:16:32.469Z,9.87
2019-05-07T18:17:30.353Z,9.80
2019-05-07T18:18:32.533Z,9.74
2019-05-07T18:19:30.358Z,9.65
2019-05-07T18:20:30.359Z,9.61
2019-05-07T18:21:32.435Z,9.50
2019-05-07T18:22:32.412Z,9.48
2019-05-07T18:23:32.120Z,9.42
2019-05-07T18:24:32.432Z,9.36
2019-05-07T18:25:32.221Z,9.33
2019-05-07T18:26:33.217Z,9.23
2019-05-07T18:27:32.825Z,9.17
2019-05-07T18:28:32.391Z,9.07
2019-05-07T18:29:32.397Z,9.00
2019-05-07T18:30:32.536Z,8.91
2019-05-07T18:31:32.503Z,8.80
2019-05-07T18:32:32.370Z,8.78
2019-05-07T18:33:30.398Z,8.72
2019-05-07T18:34:32.045Z,8.53
2019-05-07T18:35:32.112Z,8.53
2019-05-07T18:36:31.649Z,8.48
2019-05-07T18:37:32.473Z,8.41
2019-05-07T18:38:32.730Z,8.38
2019-05-07T18:39:32.440Z,8.27
2019-05-07T18:40:30.449Z,8.23
2019-05-07T18:41:32.549Z,8.19
2019-05-07T18:42:32.547Z,8.12
2019-05-07T18:43:30.433Z,8.08
2019-05-07T18:44:30.450Z,8.05
2019-05-07T18:45:30.453Z,8.03
2019-05-07T18:46:32.595Z,7.91
2019-05-07T18:47:32.967Z,7.91
2019-05-07T18:48:30.475Z,7.84
2019-05-07T18:49:30.479Z,7.79
2019-05-07T18:50:32.448Z,7.70
2019-05-07T18:51:32.162Z,7.59
2019-05-07T18:52:32.001Z,7.55
2019-05-07T18:53:31.848Z,7.52
2019-05-07T18:54:31.445Z,7.38
2019-05-07T18:55:30.556Z,7.36
2019-05-07T18:56:30.499Z,7.33
2019-05-07T18:57:32.659Z,7.26
2019-05-07T18:58:31.896Z,7.23
2019-05-07T18:59:31.787Z,7.13
2019-05-07T19:00:31.781Z,7.06
2019-05-07T19:01:32.570Z,7.00
2019-05-07T19:02:31.954Z,6.99
2019-05-07T19:03:32.344Z,6.96
2019-05-07T19:04:32.638Z,6.89
2019-05-07T19:05:31.710Z,6.81
2019-05-07T19:06:31.866Z,6.78
2019-05-07T19:07:32.484Z,6.72
2019-05-07T19:08:32.637Z,6.69
2019-05-07T19:09:32.009Z,6.70
2019-05-07T19:10:32.752Z,6.64
2019-05-07T19:11:32.143Z,6.58
2019-05-07T19:12:32.617Z,6.55
2019-05-07T19:13:32.614Z,6.54
2019-05-07T19:14:33.122Z,6.52
2019-05-07T19:15:32.721Z,6.50
2019-05-07T19:16:32.342Z,6.51
2019-05-07T19:17:32.321Z,6.50
2019-05-07T19:18:32.233Z,6.45
2019-05-07T19:19:32.797Z,6.43
2019-05-07T19:20:32.652Z,6.42
2019-05-07T19:21:32.026Z,6.38
2019-05-07T19:22:32.911Z,6.32
2019-05-07T19:23:32.835Z,6.23
2019-05-07T19:24:42.258Z,6.08
2019-05-07T19:25:32.704Z,6.05
2019-05-07T19:26:30.769Z,6.09
2019-05-07T19:27:32.689Z,6.12
2019-05-07T19:28:32.779Z,6.13
2019-05-07T19:29:32.533Z,6.15
2019-05-07T19:30:32.578Z,6.12
2019-05-07T19:31:32.538Z,6.13
2019-05-07T19:32:32.326Z,6.09
2019-05-07T19:33:32.475Z,6.04
2019-05-07T19:34:32.446Z,6.03
2019-05-07T19:35:32.734Z,6.00
2019-05-07T19:36:32.150Z,6.04
2019-05-07T19:37:31.923Z,6.00
2019-05-07T19:38:32.329Z,5.99
2019-05-07T19:39:32.523Z,5.99
2019-05-07T19:40:32.458Z,5.97
2019-05-07T19:41:32.122Z,5.95
2019-05-07T19:42:31.797Z,5.96
2019-05-07T19:43:32.518Z,5.91
2019-05-07T19:44:30.986Z,5.91
2019-05-07T19:45:30.983Z,5.86
2019-05-07T19:46:30.937Z,5.78
2019-05-07T19:47:32.703Z,5.80
2019-05-07T19:48:32.280Z,5.81
2019-05-07T19:49:32.481Z,5.80
2019-05-07T19:50:32.429Z,5.81
2019-05-07T19:51:32.035Z,5.82
2019-05-07T19:52:33.007Z,5.79
2019-05-07T19:53:32.747Z,5.74
2019-05-07T19:54:32.361Z,5.77
2019-05-07T19:55:32.860Z,5.77
2019-05-07T19:56:32.435Z,5.73
2019-05-07T19:57:33.024Z,5.73
2019-05-07T19:58:32.714Z,5.67
2019-05-07T19:59:32.638Z,5.66
2019-05-07T20:00:32.743Z,5.65
2019-05-07T20:01:32.334Z,5.61
2019-05-07T20:02:32.109Z,5.58
2019-05-07T20:03:31.137Z,5.55
2019-05-07T20:04:32.143Z,5.52
2019-05-07T20:05:32.335Z,5.53
2019-05-07T20:06:32.439Z,5.56
2019-05-07T20:07:31.869Z,5.58
2019-05-07T20:08:32.265Z,5.55
2019-05-07T20:09:32.950Z,5.49
2019-05-07T20:10:33.032Z,5.48
2019-05-07T20:11:31.982Z,5.49
2019-05-07T20:12:32.296Z,5.51
2019-05-07T20:13:32.346Z,5.49
2019-05-07T20:14:33.079Z,5.47
2019-05-07T20:15:32.005Z,5.45
2019-05-07T20:16:32.908Z,5.42
2019-05-07T20:17:33.472Z,5.36
2019-05-07T20:18:32.688Z,5.26
2019-05-07T20:19:32.666Z,5.19
2019-05-07T20:20:33.133Z,5.20
2019-05-07T20:21:32.294Z,5.24
2019-05-07T20:22:32.899Z,5.27
2019-05-07T20:23:32.368Z,5.25
2019-05-07T20:24:32.625Z,5.22
2019-05-07T20:25:32.912Z,5.21
2019-05-07T20:26:32.632Z,5.20
2019-05-07T20:27:32.373Z,5.18
2019-05-07T20:28:32.587Z,5.18
2019-05-07T20:29:32.381Z,5.15
2019-05-07T20:30:32.838Z,5.11
2019-05-07T20:31:32.951Z,5.13
2019-05-07T20:32:32.818Z,5.14
2019-05-07T20:33:32.773Z,5.15
2019-05-07T20:34:32.908Z,5.16
2019-05-07T20:35:32.576Z,5.12
2019-05-07T20:36:32.729Z,5.16
2019-05-07T20:37:32.604Z,5.16
2019-05-07T20:38:32.079Z,5.14
2019-05-07T20:39:32.266Z,5.14
2019-05-07T20:40:32.101Z,5.13
2019-05-07T20:41:32.545Z,5.12
2019-05-07T20:42:32.445Z,5.11
2019-05-07T20:43:32.660Z,5.12
2019-05-07T20:44:31.932Z,5.15
2019-05-07T20:45:32.048Z,5.10
2019-05-07T20:46:31.890Z,5.04
2019-05-07T20:47:32.585Z,5.10
2019-05-07T20:48:32.423Z,5.14
2019-05-07T20:49:32.056Z,5.16
2019-05-07T20:50:33.104Z,5.18
2019-05-07T20:51:32.508Z,5.19
2019-05-07T20:52:32.559Z,5.16
2019-05-07T20:53:32.700Z,5.14
2019-05-07T20:54:32.472Z,5.14
2019-05-07T20:55:33.773Z,5.15
2019-05-07T20:56:32.239Z,5.12
2019-05-07T20:57:31.987Z,5.15
2019-05-07T20:58:32.845Z,5.15
2019-05-07T20:59:32.755Z,5.16
2019-05-07T21:00:32.579Z,5.16
2019-05-07T21:01:32.966Z,5.14
2019-05-07T21:02:44.899Z,5.14
2019-05-07T21:03:32.477Z,5.13
2019-05-07T21:04:32.975Z,5.09
2019-05-07T21:05:32.451Z,5.07
2019-05-07T21:06:32.230Z,5.05
2019-05-07T21:07:32.789Z,5.02
2019-05-07T21:08:32.121Z,5.01
2019-05-07T21:09:32.784Z,5.03
2019-05-07T21:10:32.914Z,5.03
2019-05-07T21:11:32.294Z,5.02
2019-05-07T21:12:33.142Z,4.99
2019-05-07T21:13:32.427Z,4.96
2019-05-07T21:14:32.419Z,4.95
2019-05-07T21:15:32.314Z,4.93
2019-05-07T21:16:32.880Z,4.92
2019-05-07T21:17:32.197Z,4.94
2019-05-07T21:18:32.721Z,4.92
2019-05-07T21:19:32.845Z,4.93
2019-05-07T21:20:32.356Z,4.90
2019-05-07T21:21:32.715Z,4.86
2019-05-07T21:22:31.952Z,4.81
2019-05-07T21:23:32.587Z,4.74
2019-05-07T21:24:33.055Z,4.73
2019-05-07T21:25:42.288Z,4.72
2019-05-07T21:26:32.673Z,4.72
2019-05-07T21:27:32.127Z,4.64
2019-05-07T21:28:32.390Z,4.56
2019-05-07T21:29:32.690Z,4.56
2019-05-07T21:30:32.800Z,4.57
2019-05-07T21:31:32.214Z,4.55
2019-05-07T21:32:32.535Z,4.52
2019-05-07T21:33:32.254Z,4.48
2019-05-07T21:34:31.766Z,4.44
2019-05-07T21:35:31.948Z,4.45
2019-05-07T21:36:32.409Z,4.48
2019-05-07T21:37:32.361Z,4.41
2019-05-07T21:38:32.934Z,4.40
2019-05-07T21:39:32.935Z,4.42
2019-05-07T21:40:32.060Z,4.46
2019-05-07T21:41:33.223Z,4.45
2019-05-07T21:42:32.066Z,4.45
2019-05-07T21:43:32.646Z,4.45
2019-05-07T21:44:32.648Z,4.48
2019-05-07T21:45:32.712Z,4.52
2019-05-07T21:46:32.954Z,4.54
2019-05-07T21:47:32.650Z,4.47
2019-05-07T21:48:32.921Z,4.49
2019-05-07T21:49:32.305Z,4.49
2019-05-07T21:50:31.038Z,4.47
2019-05-07T21:51:31.090Z,4.45
2019-05-07T21:52:32.942Z,4.43
2019-05-07T21:53:32.368Z,4.40
2019-05-07T21:54:31.066Z,4.35
2019-05-07T21:55:31.076Z,4.29
2019-05-07T21:56:31.111Z,4.27
2019-05-07T21:57:32.995Z,4.28
2019-05-07T21:58:32.836Z,4.27
2019-05-07T21:59:35.470Z,4.24
2019-05-07T22:00:32.548Z,4.21
2019-05-07T22:01:32.718Z,4.15
2019-05-07T22:02:32.772Z,4.12
2019-05-07T22:03:34.733Z,4.11
2019-05-07T22:04:31.094Z,4.13
2019-05-07T22:05:31.103Z,4.09
2019-05-07T22:06:31.080Z,4.07
2019-05-07T22:07:31.086Z,4.06
2019-05-07T22:08:32.589Z,3.99
2019-05-07T22:09:33.022Z,3.94
2019-05-07T22:10:32.969Z,3.88
2019-05-07T22:11:32.334Z,3.83
2019-05-07T22:12:32.008Z,3.82
2019-05-07T22:13:32.995Z,3.82
2019-05-07T22:14:32.841Z,3.78
2019-05-07T22:15:31.910Z,3.74
2019-05-07T22:16:32.774Z,3.70
2019-05-07T22:17:31.103Z,3.65
2019-05-07T22:18:31.968Z,3.66
2019-05-07T22:19:33.613Z,3.64
2019-05-07T22:20:32.004Z,3.62
2019-05-07T22:21:33.939Z,3.59
2019-05-07T22:22:31.998Z,3.55
2019-05-07T22:23:32.348Z,3.52
2019-05-07T22:24:32.832Z,3.51
2019-05-07T22:25:32.808Z,3.52
2019-05-07T22:26:32.180Z,3.52
2019-05-07T22:27:32.770Z,3.49
2019-05-07T22:28:32.062Z,3.43
2019-05-07T22:29:31.125Z,3.42
2019-05-07T22:30:33.914Z,3.38
2019-05-07T22:31:31.072Z,3.35
2019-05-07T22:32:31.120Z,3.27
2019-05-07T22:33:31.064Z,3.28
2019-05-07T22:34:31.142Z,3.28
2019-05-07T22:35:31.105Z,3.26
2019-05-07T22:36:32.703Z,3.21
2019-05-07T22:37:32.429Z,3.19
2019-05-07T22:38:32.374Z,3.18
2019-05-07T22:39:32.741Z,3.21
2019-05-07T22:40:32.121Z,3.19
2019-05-07T22:41:31.842Z,3.17
2019-05-07T22:42:32.702Z,3.12
2019-05-07T22:43:31.846Z,3.12
2019-05-07T22:44:32.129Z,3.07
2019-05-07T22:45:32.237Z,3.08
2019-05-07T22:46:32.696Z,3.04
2019-05-07T22:47:32.652Z,3.06
2019-05-07T22:48:32.479Z,3.05
2019-05-07T22:49:33.231Z,3.02
2019-05-07T22:50:33.034Z,2.96
2019-05-07T22:51:31.093Z,2.93
2019-05-07T22:52:32.660Z,2.93
2019-05-07T22:53:32.799Z,2.88
2019-05-07T22:54:31.994Z,2.86
2019-05-07T22:55:32.690Z,2.83
2019-05-07T22:56:37.333Z,2.75
2019-05-07T22:57:32.598Z,2.70
2019-05-07T22:58:32.597Z,2.65
2019-05-07T22:59:32.809Z,2.58
2019-05-07T23:00:32.150Z,2.54
2019-05-07T23:01:32.019Z,2.49
2019-05-07T23:02:32.113Z,2.44
2019-05-07T23:03:32.253Z,2.52
2019-05-07T23:04:32.514Z,2.47
2019-05-07T23:05:32.411Z,2.39
2019-05-07T23:06:31.061Z,2.36
2019-05-07T23:07:32.905Z,2.32
2019-05-07T23:08:32.862Z,2.25
2019-05-07T23:09:31.109Z,2.24
2019-05-07T23:10:33.083Z,2.26
2019-05-07T23:11:31.120Z,2.28
2019-05-07T23:12:32.734Z,2.24
2019-05-07T23:13:31.848Z,2.33
2019-05-07T23:14:33.034Z,2.30
2019-05-07T23:15:32.173Z,2.36
2019-05-07T23:16:32.447Z,2.29
2019-05-07T23:17:32.623Z,2.22
2019-05-07T23:18:31.919Z,2.17
2019-05-07T23:19:32.696Z,2.17
2019-05-07T23:20:31.937Z,2.14
2019-05-07T23:21:31.981Z,2.12
2019-05-07T23:22:32.408Z,2.10
2019-05-07T23:23:32.541Z,2.07
2019-05-07T23:24:31.841Z,2.05
2019-05-07T23:25:32.233Z,2.03
2019-05-07T23:26:33.527Z,1.99
2019-05-07T23:27:32.544Z,2.00
2019-05-07T23:28:32.311Z,1.99
2019-05-07T23:29:33.008Z,2.02
2019-05-07T23:30:33.112Z,2.01
2019-05-07T23:31:31.105Z,2.09
2019-05-07T23:32:32.921Z,2.02
2019-05-07T23:33:32.180Z,1.93
2019-05-07T23:34:32.589Z,1.87
2019-05-07T23:35:32.857Z,1.85
2019-05-07T23:36:31.144Z,1.82
2019-05-07T23:37:33.126Z,1.82
2019-05-07T23:38:31.945Z,1.82
2019-05-07T23:39:31.152Z,1.87
2019-05-07T23:40:31.169Z,1.79
2019-05-07T23:41:32.990Z,1.72
2019-05-07T23:42:31.151Z,1.66
2019-05-07T23:43:31.116Z,1.61
2019-05-07T23:44:31.162Z,1.59
2019-05-07T23:45:31.139Z,1.58
2019-05-07T23:46:31.168Z,1.58
2019-05-07T23:47:31.781Z,1.60
2019-05-07T23:48:32.093Z,1.58
2019-05-07T23:49:32.261Z,1.52
2019-05-07T23:50:32.421Z,1.54
2019-05-07T23:51:31.153Z,1.51
2019-05-07T23:52:31.162Z,1.47
2019-05-07T23:53:31.228Z,1.42
2019-05-07T23:54:31.904Z,1.37
2019-05-07T23:55:31.870Z,1.34
2019-05-07T23:56:32.942Z,1.32
2019-05-07T23:57:32.519Z,1.33
2019-05-07T23:58:32.670Z,1.34
2019-05-07T23:59:32.901Z,1.34
